createdAt,value
2024-02-14T00:01:20.642Z,8.95
2024-02-14T00:03:49.869Z,8.52
2024-02-14T00:06:19.101Z,6.50
2024-02-14T00:08:48.217Z,11.10
2024-02-14T00:11:19.283Z,6.07
2024-02-14T00:13:48.294Z,7.47
2024-02-14T00:16:17.315Z,8.57
2024-02-14T00:18:46.464Z,8.02
2024-02-14T00:21:15.677Z,6.15
2024-02-14T00:23:45.667Z,7.75
2024-02-14T00:26:15.062Z,7.25
2024-02-14T00:28:45.813Z,8.73
2024-02-14T00:31:14.890Z,6.88
2024-02-14T00:33:44.171Z,7.95
2024-02-14T00:36:13.294Z,8.23
2024-02-14T00:38:42.453Z,9.07
2024-02-14T00:41:13.604Z,9.10
2024-02-14T00:43:42.587Z,7.65
2024-02-14T00:46:19.332Z,6.05
2024-02-14T00:48:48.524Z,7.50
2024-02-14T00:51:17.605Z,5.90
2024-02-14T00:53:46.898Z,8.13
2024-02-14T00:56:15.877Z,6.13
2024-02-14T00:58:44.843Z,8.68
2024-02-14T01:01:15.593Z,6.40
2024-02-14T01:03:44.673Z,7.53
2024-02-14T01:06:13.896Z,7.28
2024-02-14T01:08:43.517Z,5.22
2024-02-14T01:11:12.942Z,6.32
2024-02-14T01:14:26.672Z,7.32
2024-02-14T01:16:58.359Z,5.50
2024-02-14T01:19:30.558Z,8.07
2024-02-14T01:21:59.603Z,4.63
2024-02-14T01:24:29.517Z,7.10
2024-02-14T01:26:58.695Z,6.72
2024-02-14T01:29:27.876Z,6.68
2024-02-14T01:31:58.521Z,6.78
2024-02-14T01:34:27.712Z,6.03
2024-02-14T01:36:56.868Z,4.80
2024-02-14T01:39:25.893Z,8.02
2024-02-14T01:41:55.109Z,6.13
2024-02-14T01:44:24.286Z,5.18
2024-02-14T01:46:55.014Z,4.38
2024-02-14T01:49:25.825Z,5.88
2024-02-14T01:51:55.014Z,6.35
2024-02-14T01:54:24.190Z,5.32
2024-02-14T01:56:53.254Z,6.63
2024-02-14T01:59:22.885Z,4.47
2024-02-14T02:01:53.561Z,7.28
2024-02-14T02:04:23.046Z,9.27
2024-02-14T02:06:58.271Z,6.53
2024-02-14T02:09:27.329Z,5.83
2024-02-14T02:11:58.018Z,6.50
2024-02-14T02:14:28.157Z,6.78
2024-02-14T02:16:57.337Z,8.13
2024-02-14T02:19:26.490Z,7.50
2024-02-14T02:21:57.233Z,5.18
2024-02-14T02:24:27.886Z,8.15
2024-02-14T02:26:58.847Z,9.30
2024-02-14T02:29:27.912Z,5.45
2024-02-14T02:31:56.940Z,6.47
2024-02-14T02:34:26.154Z,6.65
2024-02-14T02:36:55.249Z,5.68
2024-02-14T02:39:24.239Z,5.82
2024-02-14T02:41:57.342Z,7.07
2024-02-14T02:44:26.400Z,7.00
2024-02-14T02:46:55.413Z,8.02
2024-02-14T02:49:24.510Z,8.25
2024-02-14T02:51:54.265Z,8.23
2024-02-14T02:54:25.321Z,8.60
2024-02-14T02:56:55.973Z,4.63
2024-02-14T02:59:25.504Z,5.78
2024-02-14T03:01:54.575Z,9.68
2024-02-14T03:04:30.757Z,5.95
2024-02-14T03:07:10.682Z,8.85
2024-02-14T03:09:40.597Z,9.95
2024-02-14T03:12:12.855Z,10.55
2024-02-14T03:14:42.908Z,9.05
2024-02-14T03:17:12.060Z,8.48
2024-02-14T03:19:42.558Z,11.15
2024-02-14T03:22:12.120Z,9.00
2024-02-14T03:24:41.117Z,9.43
2024-02-14T03:27:11.905Z,11.32
2024-02-14T03:29:41.107Z,9.63
2024-02-14T03:32:10.472Z,9.27
2024-02-14T03:34:39.657Z,9.75
2024-02-14T03:37:09.114Z,10.35
2024-02-14T03:39:38.695Z,11.25
2024-02-14T03:42:09.538Z,11.07
2024-02-14T03:44:40.293Z,9.45
2024-02-14T03:47:09.349Z,10.77
2024-02-14T03:49:38.371Z,10.05
2024-02-14T03:52:11.753Z,10.88
2024-02-14T03:54:40.832Z,8.90
2024-02-14T03:57:10.501Z,9.50
2024-02-14T03:59:42.099Z,8.60
2024-02-14T04:02:11.780Z,10.77
2024-02-14T04:04:41.576Z,11.60
2024-02-14T04:07:10.990Z,8.82
2024-02-14T04:09:40.286Z,11.63
2024-02-14T04:12:12.024Z,11.00
2024-02-14T04:14:42.790Z,8.95
2024-02-14T04:17:13.522Z,11.40
2024-02-14T04:19:42.775Z,10.55
2024-02-14T04:22:11.870Z,10.00
2024-02-14T04:24:41.027Z,13.50
2024-02-14T04:27:10.168Z,11.02
2024-02-14T04:29:39.322Z,13.65
2024-02-14T04:32:10.725Z,11.35
2024-02-14T04:34:41.665Z,11.52
2024-02-14T04:37:14.537Z,10.07
2024-02-14T04:39:44.275Z,11.38
2024-02-14T04:42:14.234Z,10.75
2024-02-14T04:44:43.343Z,10.38
2024-02-14T04:47:13.988Z,10.32
2024-02-14T04:49:43.527Z,11.48
2024-02-14T04:52:12.527Z,14.30
2024-02-14T04:54:41.549Z,11.75
2024-02-14T04:57:10.683Z,12.63
2024-02-14T04:59:39.739Z,12.52
2024-02-14T05:02:08.978Z,11.90
2024-02-14T05:04:41.160Z,12.85
2024-02-14T05:07:10.691Z,13.73
2024-02-14T05:09:39.776Z,14.57
2024-02-14T05:12:12.551Z,15.68
2024-02-14T05:14:42.345Z,14.13
2024-02-14T05:17:11.426Z,13.18
2024-02-14T05:19:45.102Z,12.90
2024-02-14T05:22:14.303Z,14.05
2024-02-14T05:24:43.304Z,16.15
2024-02-14T05:27:12.716Z,12.45
2024-02-14T05:29:41.822Z,15.45
2024-02-14T05:32:13.761Z,14.75
2024-02-14T05:34:44.432Z,15.48
2024-02-14T05:37:13.432Z,10.45
2024-02-14T05:39:43.092Z,14.10
2024-02-14T05:42:12.209Z,15.43
2024-02-14T05:44:42.417Z,14.32
2024-02-14T05:47:13.553Z,13.73
2024-02-14T05:49:44.467Z,13.90
2024-02-14T05:52:13.566Z,15.25
2024-02-14T05:54:42.549Z,12.95
2024-02-14T05:57:11.655Z,14.52
2024-02-14T05:59:40.713Z,14.05
2024-02-14T06:02:11.711Z,16.98
2024-02-14T06:04:40.787Z,14.07
2024-02-14T06:07:13.460Z,13.43
2024-02-14T06:09:42.596Z,14.35
2024-02-14T06:12:11.641Z,13.73
2024-02-14T06:14:41.364Z,12.77
2024-02-14T06:17:10.377Z,11.32
2024-02-14T06:19:41.286Z,14.18
2024-02-14T06:22:12.727Z,14.73
2024-02-14T06:24:41.855Z,13.18
2024-02-14T06:27:11.004Z,12.57
2024-02-14T06:29:40.143Z,16.63
2024-02-14T06:32:09.551Z,11.32
2024-02-14T06:34:38.810Z,11.50
2024-02-14T06:37:08.052Z,15.07
2024-02-14T06:39:39.029Z,14.93
2024-02-14T06:42:08.557Z,15.25
2024-02-14T06:44:37.592Z,12.95
2024-02-14T06:47:06.894Z,12.63
2024-02-14T06:49:35.986Z,12.68
2024-02-14T06:52:05.264Z,13.05
2024-02-14T06:54:34.498Z,13.95
2024-02-14T06:57:05.408Z,13.50
2024-02-14T06:59:34.460Z,14.68
2024-02-14T07:02:13.022Z,14.05
2024-02-14T07:04:43.245Z,14.93
2024-02-14T07:07:12.825Z,14.10
2024-02-14T07:09:41.842Z,13.48
2024-02-14T07:12:12.646Z,14.95
2024-02-14T07:14:41.779Z,12.13
2024-02-14T07:17:10.854Z,15.80
2024-02-14T07:19:40.707Z,14.45
2024-02-14T07:22:11.402Z,14.02
2024-02-14T07:24:40.506Z,16.95
2024-02-14T07:27:11.147Z,12.15
2024-02-14T07:29:42.933Z,13.93
2024-02-14T07:32:12.031Z,15.20
2024-02-14T07:34:42.322Z,16.27
2024-02-14T07:37:11.566Z,16.15
2024-02-14T07:39:40.593Z,14.98
2024-02-14T07:42:09.770Z,14.15
2024-02-14T07:44:38.870Z,15.38
2024-02-14T07:47:09.640Z,15.75
2024-02-14T07:49:38.757Z,15.02
2024-02-14T07:52:08.607Z,14.40
2024-02-14T07:54:37.805Z,15.00
2024-02-14T07:57:07.447Z,15.65
2024-02-14T07:59:36.461Z,16.20
2024-02-14T08:02:05.669Z,13.18
2024-02-14T08:04:36.405Z,15.20
2024-02-14T08:07:05.851Z,16.48
2024-02-14T08:09:35.189Z,14.48
2024-02-14T08:12:04.518Z,16.48
2024-02-14T08:14:33.725Z,17.70
2024-02-14T08:17:02.844Z,18.33
2024-02-14T08:19:31.992Z,16.35
2024-02-14T08:22:03.367Z,14.25
2024-02-14T08:24:32.345Z,17.50
2024-02-14T08:27:01.517Z,15.98
2024-02-14T08:29:30.634Z,19.23
2024-02-14T08:31:59.646Z,17.10
2024-02-14T08:34:28.888Z,17.75
2024-02-14T08:36:58.263Z,19.98
2024-02-14T08:39:28.965Z,15.93
2024-02-14T08:41:58.061Z,15.43
2024-02-14T08:44:27.108Z,15.13
2024-02-14T08:46:56.749Z,16.15
2024-02-14T08:49:25.875Z,16.73
2024-02-14T08:51:54.958Z,15.57
2024-02-14T08:54:25.140Z,14.98
2024-02-14T08:56:57.875Z,14.27
2024-02-14T08:59:26.881Z,16.20
2024-02-14T09:01:55.963Z,15.73
2024-02-14T09:04:25.457Z,16.58
2024-02-14T09:06:54.517Z,13.63
2024-02-14T09:09:23.741Z,17.55
2024-02-14T09:11:52.936Z,16.33
2024-02-14T09:14:26.871Z,15.88
2024-02-14T09:16:56.061Z,16.17
2024-02-14T09:19:25.323Z,14.32
2024-02-14T09:21:54.385Z,16.98
2024-02-14T09:24:23.432Z,15.18
2024-02-14T09:26:52.469Z,16.27
2024-02-14T09:29:23.141Z,13.85
2024-02-14T09:31:53.538Z,16.85
2024-02-14T09:34:24.015Z,14.13
2024-02-14T09:36:55.366Z,15.57
2024-02-14T09:39:24.429Z,16.80
2024-02-14T09:41:57.294Z,18.15
2024-02-14T09:44:30.503Z,15.32
2024-02-14T09:47:00.649Z,16.50
2024-02-14T09:49:31.924Z,16.73
2024-02-14T09:52:04.488Z,13.32
2024-02-14T09:54:37.321Z,13.73
2024-02-14T09:57:06.722Z,17.38
2024-02-14T09:59:38.567Z,15.05
2024-02-14T10:02:07.732Z,16.92
2024-02-14T10:04:37.751Z,17.75
2024-02-14T10:07:07.461Z,15.60
2024-02-14T10:09:46.844Z,17.27
2024-02-14T10:12:15.930Z,19.25
2024-02-14T10:14:47.151Z,15.77
2024-02-14T10:17:21.233Z,15.60
2024-02-14T10:20:00.790Z,14.90
2024-02-14T10:22:36.513Z,15.23
2024-02-14T10:25:06.242Z,14.10
2024-02-14T10:27:35.532Z,15.63
2024-02-14T10:30:11.589Z,16.75
2024-02-14T10:35:13.547Z,13.50
2024-02-14T10:37:42.759Z,14.27
2024-02-14T10:40:12.090Z,13.73
2024-02-14T10:42:41.158Z,14.05
2024-02-14T10:45:12.700Z,17.63
2024-02-14T10:47:46.382Z,16.90
2024-02-14T10:50:16.440Z,19.38
2024-02-14T10:52:46.847Z,13.95
2024-02-14T10:55:17.827Z,15.68
2024-02-14T10:57:48.045Z,16.88
2024-02-14T11:00:20.718Z,16.90
2024-02-14T11:02:51.103Z,15.68
2024-02-14T11:05:26.038Z,15.98
2024-02-14T11:07:55.075Z,16.63
2024-02-14T11:10:25.104Z,18.23
2024-02-14T11:12:57.151Z,16.10
2024-02-14T11:15:27.992Z,16.35
2024-02-14T11:18:07.299Z,16.70
2024-02-14T11:20:37.983Z,17.38
2024-02-14T11:23:13.635Z,18.27
2024-02-14T11:25:42.744Z,17.10
2024-02-14T11:28:18.431Z,18.02
2024-02-14T11:30:50.097Z,16.95
2024-02-14T11:33:20.413Z,16.50
2024-02-14T11:36:00.787Z,17.17
2024-02-14T11:38:31.806Z,16.70
2024-02-14T11:41:01.016Z,17.95
2024-02-14T11:43:30.012Z,16.60
2024-02-14T11:46:00.833Z,17.80
2024-02-14T11:48:31.709Z,16.75
2024-02-14T11:51:00.978Z,15.00
2024-02-14T11:53:30.289Z,16.25
2024-02-14T11:55:59.488Z,15.20
2024-02-14T11:58:28.499Z,13.73
2024-02-14T12:00:57.633Z,12.88
2024-02-14T12:03:29.684Z,16.73
2024-02-14T12:05:59.440Z,15.88
2024-02-14T12:08:28.964Z,15.30
2024-02-14T12:10:58.181Z,15.63
2024-02-14T12:13:27.300Z,15.27
2024-02-14T12:15:56.992Z,12.90
2024-02-14T12:18:27.983Z,13.18
2024-02-14T12:21:09.692Z,13.90
2024-02-14T12:23:39.041Z,16.20
2024-02-14T12:26:08.077Z,17.15
2024-02-14T12:28:38.713Z,15.43
2024-02-14T12:31:07.778Z,16.50
2024-02-14T12:33:38.877Z,14.30
2024-02-14T12:36:09.321Z,14.40
2024-02-14T12:38:38.462Z,15.60
2024-02-14T12:41:07.662Z,14.15
2024-02-14T12:43:36.716Z,16.95
2024-02-14T12:46:06.448Z,15.90
2024-02-14T12:48:35.765Z,14.50
2024-02-14T12:51:07.269Z,15.15
2024-02-14T12:53:36.465Z,16.85
2024-02-14T12:56:06.681Z,16.35
2024-02-14T12:58:35.807Z,16.45
2024-02-14T13:01:07.822Z,16.00
2024-02-14T13:03:38.197Z,18.08
2024-02-14T13:06:09.281Z,15.25
2024-02-14T13:08:40.680Z,13.65
2024-02-14T13:11:12.518Z,15.05
2024-02-14T13:13:43.942Z,13.88
2024-02-14T13:16:12.998Z,17.40
2024-02-14T13:18:42.160Z,13.43
2024-02-14T13:21:13.096Z,14.95
2024-02-14T13:23:42.596Z,14.50
2024-02-14T13:26:11.833Z,15.20
2024-02-14T13:28:42.572Z,15.52
2024-02-14T13:31:12.840Z,12.65
2024-02-14T13:33:41.967Z,13.55
2024-02-14T13:36:12.935Z,12.88
2024-02-14T13:38:41.976Z,14.23
2024-02-14T13:41:11.017Z,13.20
2024-02-14T13:43:40.139Z,14.07
2024-02-14T13:46:11.308Z,14.93
2024-02-14T13:48:40.480Z,14.35
2024-02-14T13:51:10.927Z,14.25
2024-02-14T13:53:41.664Z,13.63
2024-02-14T13:56:10.761Z,14.30
2024-02-14T13:58:40.309Z,12.70
2024-02-14T14:01:09.333Z,11.70
2024-02-14T14:03:38.700Z,12.00
2024-02-14T14:06:09.872Z,13.50
2024-02-14T14:08:40.729Z,13.55
2024-02-14T14:11:10.794Z,14.00
2024-02-14T14:13:39.790Z,13.23
2024-02-14T14:16:09.078Z,14.40
2024-02-14T14:18:38.629Z,13.75
2024-02-14T14:21:08.037Z,12.63
2024-02-14T14:23:37.315Z,13.88
2024-02-14T14:26:08.694Z,12.93
2024-02-14T14:28:37.734Z,12.40
2024-02-14T14:31:06.817Z,12.63
2024-02-14T14:33:35.960Z,12.15
2024-02-14T14:36:05.586Z,14.40
2024-02-14T14:38:34.724Z,14.25
2024-02-14T14:41:04.042Z,12.27
2024-02-14T14:43:34.709Z,12.52
2024-02-14T14:46:03.697Z,11.18
2024-02-14T14:48:32.899Z,12.73
2024-02-14T14:51:02.030Z,10.32
2024-02-14T14:53:31.771Z,12.63
2024-02-14T14:56:01.944Z,12.00
2024-02-14T14:58:35.278Z,10.98
2024-02-14T15:01:06.815Z,11.48
2024-02-14T15:03:35.963Z,10.70
2024-02-14T15:06:05.215Z,12.35
2024-02-14T15:08:34.677Z,9.55
2024-02-14T15:11:04.744Z,11.52
2024-02-14T15:13:33.988Z,12.75
2024-02-14T15:16:06.330Z,12.13
2024-02-14T15:18:35.470Z,13.25
2024-02-14T15:21:09.792Z,11.30
2024-02-14T15:23:39.989Z,13.43
2024-02-14T15:26:14.007Z,10.38
2024-02-14T15:28:43.571Z,12.77
2024-02-14T15:31:32.338Z,11.50
2024-02-14T15:34:01.528Z,42.22
2024-02-14T15:36:30.866Z,18.23
2024-02-14T15:39:00.041Z,13.88
2024-02-14T15:41:29.649Z,12.75
2024-02-14T15:43:58.686Z,12.05
2024-02-14T15:46:29.430Z,33.70
2024-02-14T15:48:59.334Z,22.88
2024-02-14T15:51:29.173Z,14.48
2024-02-14T15:53:58.290Z,13.48
2024-02-14T15:56:28.511Z,13.50
2024-02-14T15:58:58.362Z,11.82
2024-02-14T16:01:30.034Z,13.48
2024-02-14T16:03:59.193Z,11.32
2024-02-14T16:06:28.456Z,12.98
2024-02-14T16:09:00.620Z,15.63
2024-02-14T16:11:32.884Z,12.60
2024-02-14T16:14:01.901Z,13.25
2024-02-14T16:16:33.703Z,11.98
2024-02-14T16:19:02.911Z,13.88
2024-02-14T16:21:32.058Z,12.05
2024-02-14T16:24:01.141Z,13.30
2024-02-14T16:26:31.500Z,12.05
2024-02-14T16:29:00.803Z,11.70
2024-02-14T16:31:31.502Z,11.63
2024-02-14T16:34:00.713Z,13.32
2024-02-14T16:36:29.988Z,11.32
2024-02-14T16:38:59.183Z,11.55
2024-02-14T16:41:28.224Z,11.25
2024-02-14T16:43:57.245Z,10.82
2024-02-14T16:46:26.473Z,14.18
2024-02-14T16:48:57.389Z,12.63
2024-02-14T16:51:27.055Z,12.50
2024-02-14T16:53:57.229Z,13.63
2024-02-14T16:56:26.795Z,14.73
2024-02-14T16:58:55.872Z,17.20
2024-02-14T17:01:26.881Z,15.60
2024-02-14T17:04:05.165Z,14.20
2024-02-14T17:06:35.350Z,15.02
2024-02-14T17:09:05.252Z,17.02
2024-02-14T17:11:34.352Z,16.65
2024-02-14T17:14:05.560Z,16.02
2024-02-14T17:16:34.588Z,13.63
2024-02-14T17:19:07.077Z,16.05
2024-02-14T17:21:36.224Z,18.65
2024-02-14T17:24:05.532Z,12.82
2024-02-14T17:26:59.914Z,15.45
2024-02-14T17:29:29.029Z,12.90
2024-02-14T17:31:58.882Z,15.40
2024-02-14T17:34:32.927Z,16.40
2024-02-14T17:37:01.962Z,13.93
2024-02-14T17:39:30.963Z,18.58
2024-02-14T17:42:00.052Z,17.33
2024-02-14T17:44:29.621Z,15.20
2024-02-14T17:46:58.650Z,14.95
2024-02-14T17:49:52.029Z,15.00
2024-02-14T17:52:22.226Z,12.40
2024-02-14T17:54:52.869Z,14.90
2024-02-14T17:57:30.900Z,15.23
2024-02-14T18:00:01.004Z,12.93
2024-02-14T18:02:30.059Z,14.73
2024-02-14T18:05:00.980Z,11.95
2024-02-14T18:07:30.000Z,15.48
2024-02-14T18:09:59.084Z,13.98
2024-02-14T18:12:28.312Z,13.07
2024-02-14T18:14:59.030Z,14.85
2024-02-14T18:17:28.156Z,12.60
2024-02-14T18:19:57.271Z,13.98
2024-02-14T18:22:28.060Z,14.38
2024-02-14T18:24:57.642Z,13.88
2024-02-14T18:27:29.651Z,11.80
2024-02-14T18:29:58.687Z,12.48
2024-02-14T18:32:27.886Z,11.55
2024-02-14T18:34:57.167Z,10.38
2024-02-14T18:37:28.191Z,11.85
2024-02-14T18:39:59.012Z,12.45
2024-02-14T18:42:28.008Z,14.35
2024-02-14T18:44:57.029Z,12.13
2024-02-14T18:47:26.563Z,10.10
2024-02-14T18:49:55.678Z,9.52
2024-02-14T18:52:24.729Z,9.75
2024-02-14T18:54:55.378Z,9.40
2024-02-14T18:57:24.571Z,11.77
2024-02-14T18:59:54.842Z,10.00
2024-02-14T19:02:23.881Z,10.25
2024-02-14T19:04:53.791Z,11.27
2024-02-14T19:07:22.862Z,10.57
2024-02-14T19:09:51.945Z,13.68
2024-02-14T19:12:22.670Z,10.13
2024-02-14T19:14:52.338Z,11.32
2024-02-14T19:17:21.348Z,10.40
2024-02-14T19:19:50.373Z,9.63
2024-02-14T19:22:19.393Z,8.77
2024-02-14T19:24:48.366Z,9.15
2024-02-14T19:27:17.415Z,10.50
2024-02-14T19:29:48.167Z,8.88
2024-02-14T19:32:17.255Z,9.48
2024-02-14T19:34:46.824Z,10.60
2024-02-14T19:37:18.945Z,11.10
2024-02-14T19:39:47.979Z,12.40
2024-02-14T19:42:17.063Z,13.55
2024-02-14T19:44:47.762Z,10.73
2024-02-14T19:47:17.655Z,11.68
2024-02-14T19:49:48.408Z,9.63
2024-02-14T19:52:17.475Z,9.65
2024-02-14T19:54:46.467Z,10.18
2024-02-14T19:57:15.586Z,11.35
2024-02-14T19:59:44.703Z,10.20
2024-02-14T20:02:15.349Z,10.93
2024-02-14T20:04:45.941Z,10.02
2024-02-14T20:07:15.078Z,11.80
2024-02-14T20:09:44.178Z,11.05
2024-02-14T20:12:14.179Z,11.15
2024-02-14T20:14:46.436Z,12.23
2024-02-14T20:17:17.637Z,10.13
2024-02-14T20:19:46.809Z,10.77
2024-02-14T20:22:15.958Z,10.90
2024-02-14T20:24:45.049Z,12.35
2024-02-14T20:27:14.245Z,12.75
2024-02-14T20:29:45.340Z,11.13
2024-02-14T20:32:17.509Z,11.75
2024-02-14T20:34:46.690Z,12.18
2024-02-14T20:37:24.504Z,12.25
2024-02-14T20:39:53.538Z,13.05
2024-02-14T20:42:22.622Z,11.68
2024-02-14T20:44:51.672Z,11.80
2024-02-14T20:47:22.523Z,14.65
2024-02-14T20:49:51.562Z,15.55
2024-02-14T20:52:21.487Z,15.27
2024-02-14T20:54:50.504Z,14.85
2024-02-14T20:57:19.582Z,14.40
2024-02-14T20:59:49.355Z,12.45
2024-02-14T21:02:19.508Z,14.27
2024-02-14T21:04:50.378Z,13.45
2024-02-14T21:07:19.603Z,14.20
2024-02-14T21:09:48.675Z,12.25
2024-02-14T21:12:19.771Z,13.70
2024-02-14T21:14:49.329Z,15.02
2024-02-14T21:17:18.480Z,17.98
2024-02-14T21:19:49.137Z,15.10
2024-02-14T21:22:18.175Z,16.15
2024-02-14T21:24:47.228Z,14.95
2024-02-14T21:27:17.271Z,15.65
2024-02-14T21:29:46.322Z,15.18
2024-02-14T21:32:16.411Z,13.85
2024-02-14T21:34:45.600Z,12.77
2024-02-14T21:37:16.248Z,12.60
2024-02-14T21:39:45.276Z,11.80
2024-02-14T21:42:14.310Z,12.60
2024-02-14T21:44:44.323Z,16.08
2024-02-14T21:47:13.413Z,14.23
2024-02-14T21:49:44.142Z,13.95
2024-02-14T21:52:42.272Z,13.82
2024-02-14T21:55:13.395Z,14.82
2024-02-14T21:57:42.528Z,18.70
2024-02-14T22:00:14.174Z,14.43
2024-02-14T22:02:43.679Z,13.32
2024-02-14T22:05:13.916Z,14.32
2024-02-14T22:07:43.066Z,14.75
2024-02-14T22:10:14.039Z,14.82
2024-02-14T22:12:43.358Z,14.48
2024-02-14T22:15:13.700Z,15.80
2024-02-14T22:17:43.360Z,15.90
2024-02-14T22:20:18.604Z,15.77
2024-02-14T22:22:48.788Z,15.80
2024-02-14T22:25:21.274Z,17.88
2024-02-14T22:27:50.310Z,14.65
2024-02-14T22:30:19.639Z,15.18
2024-02-14T22:32:49.087Z,16.98
2024-02-14T22:35:19.628Z,17.27
2024-02-14T22:37:49.020Z,17.58
2024-02-14T22:40:20.655Z,14.80
2024-02-14T22:42:49.679Z,15.07
2024-02-14T22:45:18.670Z,16.20
2024-02-14T22:47:47.907Z,17.27
2024-02-14T22:50:16.938Z,17.20
2024-02-14T22:52:45.925Z,17.48
2024-02-14T22:55:15.053Z,17.10
2024-02-14T22:57:45.693Z,18.45
2024-02-14T23:00:24.429Z,16.80
2024-02-14T23:02:53.533Z,17.70
2024-02-14T23:05:22.588Z,16.77
2024-02-14T23:07:52.214Z,17.67
2024-02-14T23:10:22.505Z,18.33
2024-02-14T23:12:53.174Z,20.90
2024-02-14T23:15:22.432Z,18.33
2024-02-14T23:17:52.584Z,19.63
2024-02-14T23:20:21.731Z,16.33
2024-02-14T23:22:50.938Z,15.68
2024-02-14T23:25:19.917Z,18.10
2024-02-14T23:27:49.486Z,17.98
2024-02-14T23:30:22.264Z,18.13
2024-02-14T23:32:51.666Z,16.33
2024-02-14T23:35:20.876Z,16.63
2024-02-14T23:37:50.149Z,21.40
2024-02-14T23:40:19.311Z,19.35
2024-02-14T23:42:48.598Z,17.10
2024-02-14T23:45:20.510Z,17.45
2024-02-14T23:47:49.700Z,19.02
2024-02-14T23:50:19.708Z,16.17
2024-02-14T23:52:49.467Z,16.25
2024-02-14T23:55:22.426Z,19.02
2024-02-14T23:57:51.722Z,16.58
